createdAt,value
2022-12-13T00:01:32.705Z,22.38
2022-12-13T00:04:01.730Z,21.67
2022-12-13T00:06:29.281Z,23.35
2022-12-13T00:08:55.748Z,22.85
2022-12-13T00:11:22.617Z,24.02
2022-12-13T00:13:49.096Z,22.60
2022-12-13T00:16:22.681Z,22.48
2022-12-13T00:18:51.539Z,22.77
2022-12-13T00:21:20.803Z,21.60
2022-12-13T00:23:47.548Z,21.85
2022-12-13T00:26:16.651Z,22.05
2022-12-13T00:28:43.562Z,21.92
2022-12-13T00:31:53.005Z,21.35
2022-12-13T00:33:56.896Z,22.17
2022-12-13T00:36:23.417Z,23.70
2022-12-13T00:39:00.550Z,22.35
2022-12-13T00:41:33.574Z,22.80
2022-12-13T00:44:00.970Z,24.88
2022-12-13T00:46:27.831Z,21.73
2022-12-13T00:48:57.005Z,23.70
2022-12-13T00:51:25.470Z,22.45
2022-12-13T00:53:51.939Z,24.50
2022-12-13T00:56:21.823Z,24.25
2022-12-13T00:58:52.135Z,22.65
2022-12-13T01:01:21.532Z,22.35
2022-12-13T01:03:49.210Z,24.50
2022-12-13T01:06:19.359Z,24.95
2022-12-13T01:08:46.734Z,24.35
2022-12-13T01:11:13.910Z,23.77
2022-12-13T01:13:41.065Z,24.80
2022-12-13T01:16:10.186Z,24.60
2022-12-13T01:18:37.197Z,24.60
2022-12-13T01:21:05.208Z,25.98
2022-12-13T01:23:32.553Z,24.50
2022-12-13T01:26:01.639Z,24.58
2022-12-13T01:28:29.030Z,25.98
2022-12-13T01:31:00.455Z,25.23
2022-12-13T01:33:27.826Z,23.67
2022-12-13T01:35:54.780Z,22.60
2022-12-13T01:38:21.796Z,26.98
2022-12-13T01:40:59.753Z,26.50
2022-12-13T01:43:46.841Z,24.23
2022-12-13T01:46:15.489Z,22.13
2022-12-13T01:48:53.958Z,24.92
2022-12-13T01:51:26.461Z,23.33
2022-12-13T01:53:58.214Z,24.85
2022-12-13T01:56:31.537Z,24.00
2022-12-13T01:59:00.502Z,25.58
2022-12-13T02:01:27.676Z,23.83
2022-12-13T02:03:54.143Z,25.40
2022-12-13T02:06:30.037Z,23.95
2022-12-13T02:08:56.754Z,24.02
2022-12-13T02:11:23.198Z,23.27
2022-12-13T02:13:49.692Z,24.52
2022-12-13T02:16:22.785Z,24.48
2022-12-13T02:19:11.264Z,22.10
2022-12-13T02:21:50.484Z,21.73
2022-12-13T02:24:59.057Z,21.63
2022-12-13T02:27:42.998Z,22.20
2022-12-13T02:30:27.009Z,21.52
2022-12-13T02:33:22.356Z,22.95
2022-12-13T02:36:26.228Z,24.55
2022-12-13T02:39:10.617Z,22.70
2022-12-13T02:41:44.331Z,20.88
2022-12-13T02:44:22.823Z,23.38
2022-12-13T02:47:02.899Z,21.17
2022-12-13T02:49:33.137Z,21.42
2022-12-13T02:52:00.623Z,23.95
2022-12-13T02:54:27.331Z,21.50
2022-12-13T02:56:58.926Z,20.45
2022-12-13T02:59:31.636Z,21.10
2022-12-13T03:02:31.509Z,22.33
2022-12-13T03:05:39.189Z,21.95
2022-12-13T03:08:29.398Z,19.50
2022-12-13T03:11:03.418Z,19.70
2022-12-13T03:13:54.454Z,19.60
2022-12-13T03:16:27.339Z,20.45
2022-12-13T03:18:57.514Z,19.23
2022-12-13T03:21:24.140Z,19.55
2022-12-13T03:23:51.122Z,19.70
2022-12-13T03:26:21.510Z,20.23
2022-12-13T03:28:48.715Z,17.02
2022-12-13T03:31:15.181Z,17.98
2022-12-13T03:33:41.726Z,16.92
2022-12-13T03:36:08.834Z,16.80
2022-12-13T03:38:36.595Z,18.58
2022-12-13T03:41:07.434Z,17.80
2022-12-13T03:43:34.113Z,18.63
2022-12-13T03:46:01.271Z,18.25
2022-12-13T03:48:28.137Z,18.52
2022-12-13T03:50:54.955Z,17.45
2022-12-13T03:53:33.201Z,18.45
2022-12-13T03:56:03.648Z,17.25
2022-12-13T03:58:35.597Z,17.63
2022-12-13T04:01:07.005Z,18.67
2022-12-13T04:03:33.666Z,16.87
2022-12-13T04:06:00.093Z,17.65
2022-12-13T04:08:26.567Z,15.48
2022-12-13T04:10:53.187Z,17.13
2022-12-13T04:13:34.512Z,17.38
2022-12-13T04:18:28.894Z,14.18
2022-12-13T04:20:55.306Z,16.42
2022-12-13T04:23:21.718Z,16.83
2022-12-13T04:25:48.270Z,17.15
2022-12-13T04:28:21.804Z,15.88
2022-12-13T04:30:53.188Z,16.23
2022-12-13T04:33:22.221Z,16.65
2022-12-13T04:35:49.710Z,17.38
2022-12-13T04:38:16.773Z,15.98
2022-12-13T04:40:43.187Z,17.35
2022-12-13T04:43:09.727Z,16.25
2022-12-13T04:45:36.209Z,17.15
2022-12-13T04:48:02.865Z,16.65
2022-12-13T04:50:29.303Z,16.67
2022-12-13T04:52:55.803Z,16.90
2022-12-13T04:55:22.289Z,16.42
2022-12-13T04:57:49.365Z,16.77
2022-12-13T05:00:16.538Z,16.25
2022-12-13T05:02:43.175Z,16.30
2022-12-13T05:05:10.691Z,16.60
2022-12-13T05:07:42.416Z,16.90
2022-12-13T05:10:10.449Z,17.25
2022-12-13T05:12:36.865Z,18.75
2022-12-13T05:15:03.765Z,17.13
2022-12-13T05:17:30.285Z,16.42
2022-12-13T05:19:56.750Z,18.15
2022-12-13T05:22:23.229Z,19.90
2022-12-13T05:24:49.688Z,18.67
2022-12-13T05:27:25.099Z,18.13
2022-12-13T05:30:03.115Z,17.05
2022-12-13T05:32:44.242Z,17.70
2022-12-13T05:35:13.119Z,19.67
2022-12-13T05:37:39.941Z,18.38
2022-12-13T05:40:07.356Z,17.13
2022-12-13T05:42:33.898Z,18.67
2022-12-13T05:45:00.304Z,19.50
2022-12-13T05:47:26.749Z,18.58
2022-12-13T05:49:53.141Z,18.52
2022-12-13T05:52:21.991Z,19.70
2022-12-13T05:54:57.162Z,19.90
2022-12-13T05:57:27.580Z,19.50
2022-12-13T05:59:54.024Z,19.20
2022-12-13T06:02:21.806Z,19.83
2022-12-13T06:04:48.719Z,20.63
2022-12-13T06:07:15.372Z,18.75
2022-12-13T06:09:42.243Z,19.25
2022-12-13T06:12:30.865Z,19.52
2022-12-13T06:15:00.999Z,20.63
2022-12-13T06:17:32.951Z,22.85
2022-12-13T06:20:00.226Z,21.70
2022-12-13T06:22:27.560Z,20.55
2022-12-13T06:24:54.079Z,18.77
2022-12-13T06:27:21.106Z,19.50
2022-12-13T06:29:47.580Z,19.98
2022-12-13T06:32:14.021Z,20.30
2022-12-13T06:34:40.450Z,22.17
2022-12-13T06:37:08.633Z,23.25
2022-12-13T06:39:35.498Z,21.17
2022-12-13T06:42:05.838Z,22.85
2022-12-13T06:44:32.429Z,23.23
2022-12-13T06:47:11.626Z,21.15
2022-12-13T06:49:44.256Z,22.38
2022-12-13T06:52:13.174Z,23.35
2022-12-13T06:54:40.504Z,22.27
2022-12-13T06:57:06.952Z,23.45
2022-12-13T06:59:33.370Z,24.23
2022-12-13T07:02:03.773Z,23.17
2022-12-13T07:04:31.447Z,21.98
2022-12-13T07:07:01.636Z,22.55
2022-12-13T07:09:32.794Z,21.48
2022-12-13T07:11:59.449Z,22.70
2022-12-13T07:14:26.021Z,22.33
2022-12-13T07:16:55.467Z,22.75
2022-12-13T07:19:25.994Z,22.70
2022-12-13T07:22:01.526Z,24.10
2022-12-13T07:24:27.954Z,24.00
2022-12-13T07:26:54.418Z,23.23
2022-12-13T07:29:22.386Z,24.05
2022-12-13T07:31:49.736Z,24.67
2022-12-13T07:34:16.237Z,24.27
2022-12-13T07:36:42.660Z,24.60
2022-12-13T07:39:10.361Z,22.00
2022-12-13T07:41:36.801Z,21.80
2022-12-13T07:44:03.344Z,23.20
2022-12-13T07:46:33.574Z,22.23
2022-12-13T07:49:05.039Z,22.58
2022-12-13T07:51:34.763Z,22.80
2022-12-13T07:54:06.763Z,22.60
2022-12-13T07:56:34.569Z,20.92
2022-12-13T07:59:00.991Z,20.65
2022-12-13T08:01:28.402Z,20.73
2022-12-13T08:03:54.922Z,20.02
2022-12-13T08:06:21.398Z,19.85
2022-12-13T08:08:50.996Z,19.95
2022-12-13T08:11:17.591Z,20.13
2022-12-13T08:13:44.297Z,19.95
2022-12-13T08:16:28.174Z,19.35
2022-12-13T08:19:02.527Z,19.58
2022-12-13T08:21:54.086Z,20.10
2022-12-13T08:24:21.394Z,19.80
2022-12-13T08:26:47.922Z,19.10
2022-12-13T08:29:32.142Z,18.35
2022-12-13T08:32:02.059Z,19.52
2022-12-13T08:34:28.746Z,19.67
2022-12-13T08:37:02.869Z,18.92
2022-12-13T08:39:35.608Z,17.42
2022-12-13T08:42:16.834Z,18.38
2022-12-13T08:44:52.135Z,16.17
2022-12-13T08:47:22.942Z,15.70
2022-12-13T08:49:52.572Z,17.13
2022-12-13T08:52:21.082Z,16.70
2022-12-13T08:54:47.524Z,15.57
2022-12-13T08:57:13.953Z,15.60
2022-12-13T08:59:40.393Z,15.35
2022-12-13T09:02:07.012Z,15.90
2022-12-13T09:04:33.494Z,14.48
2022-12-13T09:07:01.626Z,15.88
2022-12-13T09:09:29.457Z,15.95
2022-12-13T09:11:59.674Z,15.23
2022-12-13T09:14:33.808Z,15.85
2022-12-13T09:17:02.724Z,16.08
2022-12-13T09:19:36.802Z,14.95
2022-12-13T09:22:05.196Z,15.10
2022-12-13T09:24:36.290Z,14.38
2022-12-13T09:27:09.497Z,15.05
2022-12-13T09:29:36.986Z,17.92
2022-12-13T09:32:03.663Z,16.98
2022-12-13T09:34:32.885Z,17.05
2022-12-13T09:37:01.136Z,15.70
2022-12-13T09:39:28.300Z,15.30
2022-12-13T09:42:00.920Z,16.50
2022-12-13T09:44:46.635Z,15.43
2022-12-13T09:47:26.935Z,15.85
2022-12-13T09:50:06.999Z,15.35
2022-12-13T09:52:39.789Z,18.38
2022-12-13T09:55:39.388Z,15.13
2022-12-13T09:58:14.138Z,17.65
2022-12-13T10:00:41.493Z,17.02
2022-12-13T10:03:14.067Z,16.20
2022-12-13T10:05:44.965Z,14.85
2022-12-13T10:08:20.687Z,14.25
2022-12-13T10:10:50.504Z,16.75
2022-12-13T10:13:26.080Z,15.50
2022-12-13T10:16:00.687Z,15.05
2022-12-13T10:18:37.870Z,15.05
2022-12-13T10:21:10.251Z,17.48
2022-12-13T10:23:59.859Z,15.77
2022-12-13T10:26:24.555Z,15.85
2022-12-13T10:29:01.915Z,15.40
2022-12-13T10:31:28.539Z,13.45
2022-12-13T10:33:57.172Z,14.77
2022-12-13T10:36:38.402Z,14.00
2022-12-13T10:39:05.162Z,15.23
2022-12-13T10:41:32.706Z,15.07
2022-12-13T10:44:25.447Z,13.02
2022-12-13T10:47:09.937Z,14.15
2022-12-13T10:49:52.135Z,13.43
2022-12-13T10:52:43.337Z,13.15
2022-12-13T10:55:28.810Z,14.82
2022-12-13T10:57:59.270Z,13.23
2022-12-13T11:00:38.925Z,13.23
2022-12-13T11:03:06.182Z,14.50
2022-12-13T11:05:35.039Z,12.80
2022-12-13T11:08:26.891Z,14.32
2022-12-13T11:10:59.116Z,12.90
2022-12-13T11:13:36.829Z,14.90
2022-12-13T11:16:16.563Z,12.68
2022-12-13T11:18:43.094Z,13.05
2022-12-13T11:21:09.766Z,13.73
2022-12-13T11:23:44.840Z,12.48
2022-12-13T11:26:24.569Z,13.57
2022-12-13T11:29:29.225Z,12.30
2022-12-13T11:32:24.608Z,13.98
2022-12-13T11:35:24.849Z,14.73
2022-12-13T11:38:11.070Z,14.02
2022-12-13T11:41:10.967Z,13.18
2022-12-13T11:43:47.696Z,14.48
2022-12-13T11:46:22.136Z,13.32
2022-12-13T11:48:58.634Z,13.82
2022-12-13T11:51:31.177Z,13.73
2022-12-13T11:54:23.685Z,14.80
2022-12-13T11:57:00.254Z,15.35
2022-12-13T11:59:45.248Z,13.32
2022-12-13T12:02:18.395Z,13.13
2022-12-13T12:04:59.732Z,14.20
2022-12-13T12:08:05.251Z,14.23
2022-12-13T12:10:49.059Z,13.02
2022-12-13T12:13:50.343Z,12.90
2022-12-13T12:16:46.328Z,13.27
2022-12-13T12:19:15.658Z,12.73
2022-12-13T12:22:18.893Z,11.90
2022-12-13T12:24:51.594Z,12.13
2022-12-13T12:27:38.761Z,13.80
2022-12-13T12:30:24.262Z,13.30
2022-12-13T12:33:11.440Z,14.10
2022-12-13T12:36:12.693Z,13.35
2022-12-13T12:38:52.000Z,13.90
2022-12-13T12:41:33.062Z,13.65
2022-12-13T12:44:30.632Z,14.02
2022-12-13T12:47:08.945Z,13.85
2022-12-13T12:50:06.939Z,13.45
2022-12-13T12:52:47.029Z,12.98
2022-12-13T12:55:43.970Z,13.32
2022-12-13T12:58:29.336Z,13.13
2022-12-13T13:01:25.352Z,14.25
2022-12-13T13:04:01.731Z,13.07
2022-12-13T13:06:37.568Z,13.18
2022-12-13T13:09:14.361Z,12.23
2022-12-13T13:11:43.678Z,11.68
2022-12-13T13:14:28.229Z,12.43
2022-12-13T13:16:55.767Z,13.98
2022-12-13T13:19:31.056Z,13.45
2022-12-13T13:22:01.270Z,11.60
2022-12-13T13:24:30.938Z,12.00
2022-12-13T13:27:10.880Z,12.70
2022-12-13T13:29:43.648Z,12.18
2022-12-13T13:32:28.548Z,13.77
2022-12-13T13:35:32.003Z,11.95
2022-12-13T13:38:28.754Z,11.98
2022-12-13T13:40:55.370Z,13.73
2022-12-13T13:43:32.503Z,12.82
2022-12-13T13:46:10.710Z,12.65
2022-12-13T13:48:48.618Z,11.35
2022-12-13T13:52:24.034Z,12.55
2022-12-13T13:54:59.829Z,11.98
2022-12-13T13:58:00.343Z,12.32
2022-12-13T14:00:44.076Z,12.90
2022-12-13T14:03:36.982Z,11.68
2022-12-13T14:06:46.226Z,11.97
2022-12-13T14:09:31.925Z,11.20
2022-12-13T14:12:27.758Z,12.02
2022-12-13T14:15:42.161Z,11.98
2022-12-13T14:18:28.043Z,12.02
2022-12-13T14:21:22.302Z,11.65
2022-12-13T14:24:13.719Z,13.65
2022-12-13T14:27:19.886Z,11.82
2022-12-13T14:30:09.474Z,12.73
2022-12-13T14:32:53.396Z,13.10
2022-12-13T14:35:27.617Z,13.38
2022-12-13T14:38:04.991Z,13.70
2022-12-13T14:40:37.108Z,13.73
2022-12-13T14:43:03.920Z,15.15
2022-12-13T14:45:36.792Z,14.05
2022-12-13T14:48:06.519Z,13.35
2022-12-13T14:50:36.619Z,13.52
2022-12-13T14:53:04.225Z,15.10
2022-12-13T14:55:33.683Z,13.35
2022-12-13T14:58:02.261Z,13.10
2022-12-13T15:00:39.963Z,14.38
2022-12-13T15:03:07.289Z,13.70
2022-12-13T15:05:44.301Z,13.70
2022-12-13T15:11:03.090Z,11.13
2022-12-13T15:13:44.707Z,12.70
2022-12-13T15:16:23.957Z,12.88
2022-12-13T15:19:30.268Z,14.60
2022-12-13T15:22:07.590Z,13.57
2022-12-13T15:24:46.907Z,13.73
2022-12-13T15:27:24.517Z,12.00
2022-12-13T15:29:52.267Z,13.85
2022-12-13T15:32:22.686Z,13.10
2022-12-13T15:34:51.138Z,14.07
2022-12-13T15:37:28.086Z,14.00
2022-12-13T15:40:06.025Z,13.68
2022-12-13T15:42:35.729Z,12.65
2022-12-13T15:45:06.123Z,14.95
2022-12-13T15:47:33.264Z,14.07
2022-12-13T15:50:05.822Z,15.73
2022-12-13T15:52:38.019Z,13.43
2022-12-13T15:55:07.822Z,13.48
2022-12-13T15:57:48.008Z,14.18
2022-12-13T16:00:20.682Z,13.68
2022-12-13T16:03:08.705Z,13.27
2022-12-13T16:05:40.078Z,13.45
2022-12-13T16:08:15.855Z,17.02
2022-12-13T16:10:50.131Z,14.52
2022-12-13T16:13:29.155Z,14.32
2022-12-13T16:16:27.468Z,14.98
2022-12-13T16:18:57.717Z,15.07
2022-12-13T16:21:25.476Z,12.45
2022-12-13T16:23:51.997Z,13.88
2022-12-13T16:26:26.726Z,12.50
2022-12-13T16:28:55.292Z,13.23
2022-12-13T16:31:27.939Z,13.32
2022-12-13T16:33:54.560Z,14.73
2022-12-13T16:36:21.220Z,14.25
2022-12-13T16:38:48.699Z,14.40
2022-12-13T16:41:15.673Z,14.20
2022-12-13T16:44:03.267Z,12.52
2022-12-13T16:47:17.900Z,13.73
2022-12-13T16:49:27.859Z,12.65
2022-12-13T16:51:55.075Z,13.45
2022-12-13T16:54:24.378Z,12.25
2022-12-13T16:56:51.682Z,14.85
2022-12-13T16:59:22.264Z,13.00
2022-12-13T17:01:50.242Z,13.13
2022-12-13T17:04:20.897Z,13.07
2022-12-13T17:06:54.505Z,13.30
2022-12-13T17:09:23.686Z,14.27
2022-12-13T17:11:50.827Z,14.68
2022-12-13T17:14:17.276Z,13.63
2022-12-13T17:16:43.897Z,15.18
2022-12-13T17:19:12.255Z,12.50
2022-12-13T17:21:38.733Z,15.30
2022-12-13T17:24:05.934Z,13.73
2022-12-13T17:26:32.725Z,15.00
2022-12-13T17:28:59.187Z,15.85
2022-12-13T17:31:28.097Z,13.95
2022-12-13T17:33:59.984Z,13.80
2022-12-13T17:36:26.908Z,14.27
2022-12-13T17:38:53.412Z,14.07
2022-12-13T17:41:19.942Z,14.77
2022-12-13T17:43:46.417Z,13.85
2022-12-13T17:46:18.534Z,14.95
2022-12-13T17:48:45.640Z,16.08
2022-12-13T17:51:13.033Z,14.32
2022-12-13T17:53:41.071Z,14.82
2022-12-13T17:56:11.876Z,16.40
2022-12-13T17:58:38.992Z,14.93
2022-12-13T18:01:15.762Z,13.93
2022-12-13T18:03:42.744Z,15.48
2022-12-13T18:06:09.656Z,16.08
2022-12-13T18:08:40.379Z,15.05
2022-12-13T18:11:31.777Z,16.30
2022-12-13T18:13:55.804Z,14.35
2022-12-13T18:16:26.678Z,14.73
2022-12-13T18:18:57.087Z,16.25
2022-12-13T18:21:24.977Z,13.90
2022-12-13T18:23:54.955Z,14.55
2022-12-13T18:26:23.311Z,14.18
2022-12-13T18:28:49.771Z,16.00
2022-12-13T18:31:22.245Z,14.77
2022-12-13T18:33:50.189Z,14.90
2022-12-13T18:36:17.410Z,15.27
2022-12-13T18:38:44.157Z,15.20
2022-12-13T18:41:20.206Z,13.98
2022-12-13T18:43:47.594Z,13.75
2022-12-13T18:46:15.115Z,14.13
2022-12-13T18:48:41.750Z,15.60
2022-12-13T18:51:09.752Z,15.30
2022-12-13T18:53:37.702Z,15.52
2022-12-13T18:56:18.287Z,14.25
2022-12-13T18:58:48.194Z,14.18
2022-12-13T19:01:16.700Z,14.07
2022-12-13T19:03:45.232Z,15.90
2022-12-13T19:06:19.927Z,14.68
2022-12-13T19:08:51.452Z,14.15
2022-12-13T19:11:18.883Z,13.82
2022-12-13T19:13:45.468Z,14.23
2022-12-13T19:16:14.348Z,14.10
2022-12-13T19:18:42.332Z,15.80
2022-12-13T19:21:13.033Z,14.82
2022-12-13T19:23:40.972Z,14.70
2022-12-13T19:26:10.546Z,14.73
2022-12-13T19:28:38.012Z,14.55
2022-12-13T19:31:09.217Z,14.50
2022-12-13T19:33:35.988Z,13.15
2022-12-13T19:36:03.694Z,14.27
2022-12-13T19:38:30.345Z,15.10
2022-12-13T19:40:56.999Z,15.93
2022-12-13T19:43:23.821Z,14.48
2022-12-13T19:45:50.547Z,14.35
2022-12-13T19:48:17.290Z,14.65
2022-12-13T19:50:44.467Z,14.57
2022-12-13T19:53:11.957Z,15.00
2022-12-13T19:55:48.363Z,13.60
2022-12-13T19:58:15.275Z,14.27
2022-12-13T20:00:41.783Z,15.20
2022-12-13T20:03:08.398Z,13.45
2022-12-13T20:05:35.986Z,14.57
2022-12-13T20:08:02.891Z,15.85
2022-12-13T20:10:29.434Z,15.85
2022-12-13T20:12:55.977Z,14.75
2022-12-13T20:15:22.513Z,15.10
2022-12-13T20:17:49.061Z,14.88
2022-12-13T20:20:15.629Z,15.45
2022-12-13T20:22:42.170Z,14.13
2022-12-13T20:25:10.005Z,14.73
2022-12-13T20:27:36.561Z,14.55
2022-12-13T20:30:04.778Z,14.70
2022-12-13T20:32:31.478Z,16.15
2022-12-13T20:34:58.024Z,15.50
2022-12-13T20:37:24.737Z,14.55
2022-12-13T20:39:51.170Z,14.75
2022-12-13T20:42:17.607Z,16.27
2022-12-13T20:44:44.735Z,14.93
2022-12-13T20:47:11.561Z,15.40
2022-12-13T20:49:38.072Z,15.35
2022-12-13T20:52:04.803Z,16.23
2022-12-13T20:54:31.488Z,15.70
2022-12-13T20:56:58.144Z,15.43
2022-12-13T20:59:24.598Z,16.42
2022-12-13T21:01:51.125Z,15.15
2022-12-13T21:04:18.158Z,17.30
2022-12-13T21:06:44.679Z,15.68
2022-12-13T21:09:11.970Z,16.30
2022-12-13T21:11:41.215Z,15.15
2022-12-13T21:14:22.313Z,14.82
2022-12-13T21:16:52.534Z,15.88
2022-12-13T21:19:24.565Z,15.63
2022-12-13T21:21:52.292Z,15.52
2022-12-13T21:24:20.320Z,16.23
2022-12-13T21:26:47.455Z,14.55
2022-12-13T21:29:16.185Z,15.48
2022-12-13T21:31:48.768Z,14.88
2022-12-13T21:34:16.567Z,14.90
2022-12-13T21:36:45.152Z,15.27
2022-12-13T21:39:23.162Z,15.77
2022-12-13T21:41:50.589Z,14.55
2022-12-13T21:44:18.069Z,14.70
2022-12-13T21:47:11.318Z,14.52
2022-12-13T21:49:31.524Z,14.65
2022-12-13T21:51:58.016Z,14.77
2022-12-13T21:54:24.476Z,14.35
2022-12-13T21:57:11.196Z,14.38
2022-12-13T21:59:37.694Z,12.88
2022-12-13T22:02:12.281Z,14.85
2022-12-13T22:04:40.158Z,13.55
2022-12-13T22:07:08.348Z,14.55
2022-12-13T22:09:36.026Z,14.65
2022-12-13T22:12:07.255Z,14.32
2022-12-13T22:14:33.853Z,12.30
2022-12-13T22:17:01.195Z,14.30
2022-12-13T22:19:27.718Z,14.38
2022-12-13T22:21:54.196Z,13.82
2022-12-13T22:24:20.647Z,13.80
2022-12-13T22:26:47.105Z,14.02
2022-12-13T22:29:13.761Z,13.57
2022-12-13T22:31:40.425Z,13.18
2022-12-13T22:34:07.209Z,13.20
2022-12-13T22:36:34.014Z,13.40
2022-12-13T22:39:00.669Z,14.23
2022-12-13T22:41:27.271Z,13.73
2022-12-13T22:43:54.599Z,14.27
2022-12-13T22:46:21.112Z,14.60
2022-12-13T22:48:47.644Z,14.30
2022-12-13T22:51:16.541Z,14.07
2022-12-13T22:53:44.743Z,14.20
2022-12-13T22:56:13.732Z,13.85
2022-12-13T22:58:41.264Z,14.52
2022-12-13T23:01:11.553Z,14.55
2022-12-13T23:03:40.027Z,14.32
2022-12-13T23:06:15.160Z,15.00
2022-12-13T23:08:44.806Z,14.65
2022-12-13T23:11:33.139Z,15.63
2022-12-13T23:14:01.416Z,14.95
2022-12-13T23:16:30.022Z,13.88
2022-12-13T23:19:17.261Z,15.60
2022-12-13T23:21:48.460Z,15.90
2022-12-13T23:24:15.881Z,16.27
2022-12-13T23:26:42.479Z,13.90
2022-12-13T23:29:10.031Z,14.35
2022-12-13T23:31:42.728Z,13.90
2022-12-13T23:34:15.624Z,14.00
2022-12-13T23:36:42.098Z,14.35
2022-12-13T23:39:10.240Z,14.98
2022-12-13T23:41:36.800Z,16.42
2022-12-13T23:44:04.341Z,14.95
2022-12-13T23:46:35.888Z,14.82
2022-12-13T23:49:04.790Z,14.10
2022-12-13T23:51:32.138Z,16.27
2022-12-13T23:53:58.628Z,14.73
2022-12-13T23:56:25.182Z,16.20
2022-12-13T23:58:51.646Z,16.80
